Orpheus — WDJ4869 — position and weather

sailwx.info

Track history (hours):
 
Tides and Currents Weather Stations Pressure Air Temp Water Temp Dewpoint Dewpoint Depression Visibility Wind Speed Wind Dir Waves Ship Positions

Orpheus

Owner: Joukov, Serguei, Reston, VA. More information available from US FCC via Universal Licensing System and Coast Guard Vessel Documentation Center.

Last reported at 2017-Oct-15 17:23 UTC. Time now 2017-Oct-17 16:43 UTC.
Position N 38°60' W 076°23'.

Length 12 m.

Type: Sailing vessel. MMSI: 367781970.

Date/timePositionNaut miles runAvg speedWind from/ knotsBaromVisibWave heightAir tempDewpointWater temp
2017-Oct-15 17:23N 38°60' W 076°23'2 6.0
2017-Oct-15 17:01N 38°59' W 076°25'2 4.2
2017-Oct-15 16:31N 38°60' W 076°27'0 0.5
2017-Oct-15 15:55N 39°00' W 076°27'0 0.0
2017-Oct-15 15:28N 39°00' W 076°27'0 0.0
2017-Oct-15 14:55N 39°00' W 076°27'2 2.6
2017-Oct-15 14:00N 38°58' W 076°26'2 3.1
2017-Oct-15 13:30N 38°58' W 076°28'0 0.7
2017-Oct-15 13:00N 38°58' W 076°29'0 0.0
2017-Oct-15 12:30N 38°58' W 076°29'0 0.0
2017-Oct-15 12:00N 38°58' W 076°29'0 0.0
2017-Oct-15 11:27N 38°58' W 076°29'0 0.0
2017-Oct-15 11:00N 38°58' W 076°29'0 0.0
2017-Oct-15 10:30N 38°58' W 076°29'0 0.0
2017-Oct-15 10:00N 38°58' W 076°29'0 0.0
2017-Oct-15 09:30N 38°58' W 076°29'0 0.0
2017-Oct-15 09:00N 38°58' W 076°29'0 0.0
2017-Oct-15 08:30N 38°58' W 076°29'0 0.0
2017-Oct-15 08:00N 38°58' W 076°29'0 0.0
2017-Oct-15 07:30N 38°58' W 076°29'0 0.0
2017-Oct-15 06:57N 38°58' W 076°29'0 0.0
2017-Oct-15 06:30N 38°58' W 076°29'0 0.0
2017-Oct-15 06:00N 38°58' W 076°29'0 0.0
2017-Oct-15 05:30N 38°58' W 076°29'0 0.0
2017-Oct-15 05:00N 38°58' W 076°29'0 0.0
2017-Oct-15 04:30N 38°58' W 076°29'0 0.0
2017-Oct-15 04:00N 38°58' W 076°29'0 0.0
2017-Oct-15 03:30N 38°58' W 076°29'0 0.0
2017-Oct-15 03:00N 38°58' W 076°29'0 0.0
2017-Oct-15 02:30N 38°58' W 076°29'0 0.0
2017-Oct-15 02:00N 38°58' W 076°29'0 0.0
2017-Oct-15 01:24N 38°58' W 076°29'0 0.0
2017-Oct-15 01:00N 38°58' W 076°29'0 0.0
2017-Oct-15 00:30N 38°58' W 076°29'0 0.0
2017-Oct-15 00:00N 38°58' W 076°29'0 0.0
2017-Oct-14 23:30N 38°58' W 076°29'1 1.0
2017-Oct-14 22:59N 38°58' W 076°28'0 1.0
2017-Oct-14 22:30N 38°59' W 076°28'1 1.5
2017-Oct-14 21:59N 38°58' W 076°29'0 0.0
2017-Oct-14 21:29N 38°58' W 076°29'0 0.0
2017-Oct-14 20:59N 38°58' W 076°29'2 3.5
2017-Oct-14 20:30N 38°57' W 076°27'3 1.2
2017-Oct-14 18:03N 38°55' W 076°24'0 2.6
2017-Oct-14 18:00N 38°55' W 076°25'1 2.8
2017-Oct-14 17:30N 38°56' W 076°25'1 2.4
2017-Oct-14 17:00N 38°57' W 076°26'1 3.0
2017-Oct-14 16:30N 38°58' W 076°28'1 1.3
2017-Oct-14 16:00N 38°58' W 076°29'0 0.0
2017-Oct-14 15:30N 38°58' W 076°29'0 0.0
2017-Oct-14 15:00N 38°58' W 076°29'0 0.0
2017-Oct-14 14:30N 38°58' W 076°29'0 0.0
2017-Oct-14 14:00N 38°58' W 076°29'0 0.0
2017-Oct-14 13:30N 38°58' W 076°29'0 0.0
2017-Oct-14 13:00N 38°58' W 076°29'0 0.0
2017-Oct-14 12:30N 38°58' W 076°29'0 0.0
2017-Oct-14 12:00N 38°58' W 076°29'0 0.0
2017-Oct-14 11:27N 38°58' W 076°29'0 0.0
2017-Oct-14 11:00N 38°58' W 076°29'0 0.0
2017-Oct-14 10:30N 38°58' W 076°29'0 0.0
2017-Oct-14 10:00N 38°58' W 076°29'0 0.0
2017-Oct-14 09:30N 38°58' W 076°29'0 0.0
2017-Oct-14 09:00N 38°58' W 076°29'0 0.0
2017-Oct-14 08:30N 38°58' W 076°29'0 0.0
2017-Oct-14 08:00N 38°58' W 076°29'0 0.0
2017-Oct-14 07:30N 38°58' W 076°29'0 0.0
2017-Oct-14 07:00N 38°58' W 076°29'0 0.0
2017-Oct-14 06:30N 38°58' W 076°29'0 0.0
2017-Oct-14 06:00N 38°58' W 076°29'0 0.0
2017-Oct-14 05:30N 38°58' W 076°29'0 0.0
2017-Oct-14 05:00N 38°58' W 076°29'0 0.0
2017-Oct-14 04:30N 38°58' W 076°29'0 0.0
2017-Oct-14 04:00N 38°58' W 076°29'0 0.0
2017-Oct-14 03:30N 38°58' W 076°29'0 0.0
2017-Oct-14 03:00N 38°58' W 076°29'0 0.0
2017-Oct-14 02:24N 38°58' W 076°29'0 0.0
2017-Oct-14 02:00N 38°58' W 076°29'0 0.0
2017-Oct-13 23:18N 38°58' W 076°29'0 0.0
2017-Oct-13 23:00N 38°58' W 076°29'0 0.0
2017-Oct-13 22:30N 38°58' W 076°29'0 0.0
2017-Oct-13 22:00N 38°58' W 076°29'0 0.0
2017-Oct-13 21:30N 38°58' W 076°29'0 0.0
2017-Oct-13 21:00N 38°58' W 076°29'0 0.9
2017-Oct-13 20:30N 38°58' W 076°28'2 3.3
2017-Oct-13 20:00N 38°57' W 076°26'2 2.7
2017-Oct-13 19:08N 38°55' W 076°26'1 4.7
2017-Oct-13 18:54N 38°56' W 076°26'2 5.7
2017-Oct-13 18:30N 38°58' W 076°27'1 1.9
2017-Oct-13 18:00N 38°58' W 076°29'0 0.0
2017-Oct-13 17:30N 38°58' W 076°29'0 0.0
2017-Oct-13 17:00N 38°58' W 076°29'0 0.0
2017-Oct-13 16:30N 38°58' W 076°29'0 0.0
2017-Oct-13 16:00N 38°58' W 076°29'0 0.0
2017-Oct-13 15:30N 38°58' W 076°29'0 0.0
2017-Oct-13 15:00N 38°58' W 076°29'0 0.0
2017-Oct-13 14:27N 38°58' W 076°29'0 0.0
2017-Oct-13 14:00N 38°58' W 076°29'0 0.0
2017-Oct-13 13:30N 38°58' W 076°29'0 0.0
2017-Oct-13 13:00N 38°58' W 076°29'0 0.0
2017-Oct-13 12:30N 38°58' W 076°29'0 0.0
2017-Oct-13 12:00N 38°58' W 076°29'0 0.0
2017-Oct-13 11:30N 38°58' W 076°29'0 0.0
2017-Oct-13 11:00N 38°58' W 076°29'0 0.0
2017-Oct-13 10:30N 38°58' W 076°29'0 0.0
2017-Oct-13 09:57N 38°58' W 076°29'0 0.0
2017-Oct-13 09:30N 38°58' W 076°29'0 0.0
2017-Oct-13 09:00N 38°58' W 076°29'0 0.0
2017-Oct-13 08:30N 38°58' W 076°29'0 0.0
2017-Oct-13 08:00N 38°58' W 076°29'0 0.0
2017-Oct-13 07:30N 38°58' W 076°29'0 0.0
2017-Oct-13 07:00N 38°58' W 076°29'0 0.0
2017-Oct-13 06:30N 38°58' W 076°29'0 0.0
2017-Oct-13 06:00N 38°58' W 076°29'0 0.0
2017-Oct-13 05:30N 38°58' W 076°29'0 0.0
2017-Oct-13 05:00N 38°58' W 076°29'0 0.0
2017-Oct-13 04:30N 38°58' W 076°29'0 0.0
2017-Oct-13 04:00N 38°58' W 076°29'0 0.0
2017-Oct-13 03:30N 38°58' W 076°29'0 0.0
2017-Oct-13 03:00N 38°58' W 076°29'0 0.0
2017-Oct-13 02:30N 38°58' W 076°29'0 0.0
2017-Oct-13 02:00N 38°58' W 076°29'0 0.0
2017-Oct-13 01:30N 38°58' W 076°29'0 0.0
2017-Oct-13 01:00N 38°58' W 076°29'0 0.0
2017-Oct-13 00:30N 38°58' W 076°29'0 0.0
2017-Oct-13 00:00N 38°58' W 076°29'0 0.0
2017-Oct-12 23:30N 38°58' W 076°29'0 0.0
2017-Oct-12 23:00N 38°58' W 076°29'0 0.0
2017-Oct-12 22:30N 38°58' W 076°29'0 0.0
2017-Oct-12 22:00N 38°58' W 076°29'0 0.0
2017-Oct-12 21:30N 38°58' W 076°29'0 0.0
2017-Oct-12 21:00N 38°58' W 076°29'0 0.0
2017-Oct-12 20:30N 38°58' W 076°29'0 0.0
2017-Oct-12 20:00N 38°58' W 076°29'0 0.0
2017-Oct-12 19:30N 38°58' W 076°29'0 0.0
2017-Oct-12 19:00N 38°58' W 076°29'0 0.0
2017-Oct-12 18:30N 38°58' W 076°29'0 0.0
2017-Oct-12 18:00N 38°58' W 076°29'0 0.0
2017-Oct-12 17:30N 38°58' W 076°29'0 0.0
2017-Oct-12 17:00N 38°58' W 076°29'0 0.0
2017-Oct-12 16:30N 38°58' W 076°29'0 0.0
2017-Oct-12 16:00N 38°58' W 076°29'0 0.0
2017-Oct-12 15:30N 38°58' W 076°29'0 0.0
2017-Oct-12 15:00N 38°58' W 076°29'0 0.0
2017-Oct-12 14:30N 38°58' W 076°29'0 0.0
2017-Oct-12 14:00N 38°58' W 076°29'0 0.0
2017-Oct-12 13:30N 38°58' W 076°29'0 0.0
2017-Oct-12 13:00N 38°58' W 076°29'0 0.0
2017-Oct-12 12:30N 38°58' W 076°29'0 0.0
2017-Oct-12 11:54N 38°58' W 076°29'0 0.0
2017-Oct-12 11:30N 38°58' W 076°29'0 0.0
2017-Oct-12 11:00N 38°58' W 076°29'0 0.0
2017-Oct-12 10:30N 38°58' W 076°29'0 0.0
2017-Oct-12 10:00N 38°58' W 076°29'0 0.0
2017-Oct-12 09:30N 38°58' W 076°29'0 0.0
2017-Oct-12 09:00N 38°58' W 076°29'0 0.0
2017-Oct-12 08:30N 38°58' W 076°29'0 0.0
2017-Oct-12 08:00N 38°58' W 076°29'0 0.0
2017-Oct-12 07:30N 38°58' W 076°29'0 0.0
2017-Oct-12 07:00N 38°58' W 076°29'0 0.0
2017-Oct-12 06:27N 38°58' W 076°29'0 0.0
2017-Oct-12 06:00N 38°58' W 076°29'0 0.0
2017-Oct-12 05:30N 38°58' W 076°29'0 0.0
2017-Oct-12 05:00N 38°58' W 076°29'0 0.0
2017-Oct-12 04:30N 38°58' W 076°29'0 0.0
2017-Oct-12 04:00N 38°58' W 076°29'0 0.0
2017-Oct-12 03:30N 38°58' W 076°29'0 0.0
2017-Oct-12 03:00N 38°58' W 076°29'0 0.0
2017-Oct-12 02:30N 38°58' W 076°29'0 0.0
2017-Oct-12 02:00N 38°58' W 076°29'0 0.0
2017-Oct-12 01:27N 38°58' W 076°29'0 0.0
2017-Oct-12 00:57N 38°58' W 076°29'0 0.0
2017-Oct-12 00:30N 38°58' W 076°29'0 0.0
2017-Oct-12 00:00N 38°58' W 076°29'0 0.0
2017-Oct-11 23:30N 38°58' W 076°29'0 0.0
2017-Oct-11 23:00N 38°58' W 076°29'0 0.0
2017-Oct-11 22:30N 38°58' W 076°29'0 0.0
2017-Oct-11 22:00N 38°58' W 076°29'0 0.0
2017-Oct-11 21:30N 38°58' W 076°29'0 0.0
2017-Oct-11 21:00N 38°58' W 076°29'0 0.0
2017-Oct-11 20:30N 38°58' W 076°29'0 0.0
2017-Oct-11 20:00N 38°58' W 076°29'0 0.0
2017-Oct-11 19:30N 38°58' W 076°29'0 0.0
2017-Oct-11 19:00N 38°58' W 076°29'0 0.0
2017-Oct-11 18:30N 38°58' W 076°29'0 0.0
2017-Oct-11 18:00N 38°58' W 076°29'0 0.0
2017-Oct-11 17:30N 38°58' W 076°29'0 0.0
2017-Oct-11 17:00N 38°58' W 076°29'0 0.0
2017-Oct-11 00:00N 38°58' W 076°29'0 0.0
2017-Oct-10 23:30N 38°58' W 076°29'0 0.0
2017-Oct-10 23:00N 38°58' W 076°29'0 0.0
2017-Oct-10 22:30N 38°58' W 076°29'0 0.0
2017-Oct-10 22:00N 38°58' W 076°29'0 0.0
2017-Oct-10 21:30N 38°58' W 076°29'0 0.0
2017-Oct-10 21:00N 38°58' W 076°29'0 0.0
2017-Oct-10 20:30N 38°58' W 076°29'0 0.0
2017-Oct-10 20:00N 38°58' W 076°29'0 0.0
2017-Oct-10 19:30N 38°58' W 076°29'0 0.0
2017-Oct-10 19:00N 38°58' W 076°29'0 0.0
2017-Oct-10 18:30N 38°58' W 076°29'0 0.0
2017-Oct-10 18:00N 38°58' W 076°29'0 0.0
2017-Oct-10 17:30N 38°58' W 076°29'0 0.0
2017-Oct-10 17:00N 38°58' W 076°29'0 0.0
2017-Oct-10 16:30N 38°58' W 076°29'0 0.0
2017-Oct-10 16:00N 38°58' W 076°29'0 0.0
2017-Oct-10 15:30N 38°58' W 076°29'0 0.0
2017-Oct-10 15:00N 38°58' W 076°29'0 0.0
2017-Oct-10 14:00N 38°58' W 076°29'0 0.0
2017-Oct-10 13:30N 38°58' W 076°29'0 0.0
2017-Oct-10 13:00N 38°58' W 076°29'0 0.0
2017-Oct-10 12:30N 38°58' W 076°29'0 0.0
2017-Oct-10 12:00N 38°58' W 076°29'0 0.0
2017-Oct-10 11:30N 38°58' W 076°29'0 0.0
2017-Oct-10 11:00N 38°58' W 076°29'0 0.0
2017-Oct-10 10:30N 38°58' W 076°29'0 0.0
2017-Oct-10 10:00N 38°58' W 076°29'0 0.0
2017-Oct-10 09:30N 38°58' W 076°29'0 0.0
2017-Oct-10 09:00N 38°58' W 076°29'0 0.0
2017-Oct-10 08:30N 38°58' W 076°29'0 0.0
2017-Oct-10 08:00N 38°58' W 076°29'0 0.0
2017-Oct-10 07:30N 38°58' W 076°29'0 0.0
2017-Oct-10 07:00N 38°58' W 076°29'0 0.0
2017-Oct-10 06:30N 38°58' W 076°29'0 0.0
2017-Oct-10 06:00N 38°58' W 076°29'0 0.0
2017-Oct-10 05:30N 38°58' W 076°29'0 0.0
2017-Oct-10 05:00N 38°58' W 076°29'0 0.0
2017-Oct-10 04:27N 38°58' W 076°29'0 0.0
2017-Oct-10 04:00N 38°58' W 076°29'0 0.0
2017-Oct-10 03:30N 38°58' W 076°29'0 0.0
2017-Oct-10 03:00N 38°58' W 076°29'0 0.0
2017-Oct-10 02:30N 38°58' W 076°29'0 0.0
2017-Oct-10 01:06N 38°58' W 076°29'0 0.0
2017-Oct-10 01:00N 38°58' W 076°29'0 0.0
2017-Oct-10 00:30N 38°58' W 076°29'0 0.0
2017-Oct-10 00:00N 38°58' W 076°29'0 0.0
2017-Oct-09 23:30N 38°58' W 076°29'0 0.0
2017-Oct-09 23:00N 38°58' W 076°29'0 0.0
2017-Oct-09 22:30N 38°58' W 076°29'0 0.0
2017-Oct-09 22:00N 38°58' W 076°29'1 1.0
2017-Oct-09 21:30N 38°59' W 076°29'0 0.4
2017-Oct-09 20:57N 38°59' W 076°29'0 0.0
2017-Oct-09 20:30N 38°59' W 076°29'0 0.0
2017-Oct-09 19:57N 38°59' W 076°29'0 0.0
2017-Oct-09 19:30N 38°59' W 076°29'0 0.0
2017-Oct-09 19:00N 38°59' W 076°29'0 0.0
2017-Oct-09 18:30N 38°59' W 076°29'0 0.0
2017-Oct-09 18:00N 38°59' W 076°29'0 0.0
2017-Oct-09 17:30N 38°59' W 076°29'0 0.0
2017-Oct-09 17:00N 38°59' W 076°29'0 0.0
2017-Oct-09 16:30N 38°59' W 076°29'0 0.0
2017-Oct-09 15:57N 38°59' W 076°29'0 0.0
2017-Oct-09 15:30N 38°59' W 076°29'0 0.0
2017-Oct-09 15:00N 38°59' W 076°29'0 0.0
2017-Oct-09 14:30N 38°59' W 076°29'0 0.0
2017-Oct-09 14:00N 38°59' W 076°29'0 0.0
2017-Oct-09 13:27N 38°59' W 076°29'0 0.0
2017-Oct-09 13:00N 38°59' W 076°29'0 0.0
2017-Oct-09 12:30N 38°59' W 076°29'0 0.0
2017-Oct-09 11:57N 38°59' W 076°29'0 0.0
2017-Oct-09 11:30N 38°59' W 076°29'0 0.0
2017-Oct-09 11:00N 38°59' W 076°29'0 0.0
2017-Oct-09 10:30N 38°59' W 076°29'0 0.0
2017-Oct-09 09:57N 38°59' W 076°29'0 0.0
2017-Oct-09 09:30N 38°59' W 076°29'0 0.0
2017-Oct-09 09:00N 38°59' W 076°29'0 0.0
2017-Oct-09 08:30N 38°59' W 076°29'0 0.0
2017-Oct-09 08:00N 38°59' W 076°29'0 0.0
2017-Oct-09 07:30N 38°59' W 076°29'0 0.0
2017-Oct-09 07:00N 38°59' W 076°29'0 0.0
2017-Oct-09 06:30N 38°59' W 076°29'0 0.0
2017-Oct-09 06:00N 38°59' W 076°29'0 0.0
2017-Oct-09 05:27N 38°59' W 076°29'0 0.0
2017-Oct-09 05:00N 38°59' W 076°29'0 0.0
2017-Oct-09 04:30N 38°59' W 076°29'0 0.0
2017-Oct-09 04:00N 38°59' W 076°29'0 0.0
2017-Oct-09 03:30N 38°59' W 076°29'0 0.0
2017-Oct-09 03:00N 38°59' W 076°29'0 0.0
2017-Oct-09 02:30N 38°59' W 076°29'0 0.0
2017-Oct-09 02:00N 38°59' W 076°29'0 0.0
2017-Oct-09 01:27N 38°59' W 076°29'0 0.0
2017-Oct-09 01:00N 38°59' W 076°29'0 0.0
2017-Oct-09 00:30N 38°59' W 076°29'0 0.0
2017-Oct-09 00:00N 38°59' W 076°29'0 0.0
2017-Oct-08 16:21N 38°59' W 076°29'0 0.0
2017-Oct-08 16:00N 38°59' W 076°29'0 0.0
2017-Oct-08 15:30N 38°59' W 076°29'0 0.0
2017-Oct-08 15:00N 38°59' W 076°29'0 0.0
2017-Oct-08 14:30N 38°59' W 076°29'0 0.0
2017-Oct-08 14:00N 38°59' W 076°29'0 0.0
2017-Oct-08 13:30N 38°59' W 076°29'0 0.0
2017-Oct-08 13:00N 38°59' W 076°29'0 0.0
2017-Oct-08 12:30N 38°59' W 076°29'0 0.0
2017-Oct-08 11:57N 38°59' W 076°29'0 0.0
2017-Oct-08 11:30N 38°59' W 076°29'0 0.0
2017-Oct-08 11:00N 38°59' W 076°29'0 0.0
2017-Oct-08 10:30N 38°59' W 076°29'0 0.0
2017-Oct-08 10:00N 38°59' W 076°29'0 0.0
2017-Oct-08 09:30N 38°59' W 076°29'0 0.0
2017-Oct-08 09:00N 38°59' W 076°29'0 0.0
2017-Oct-08 08:27N 38°59' W 076°29'0 0.0
2017-Oct-08 08:00N 38°59' W 076°29'0 0.0
2017-Oct-08 07:30N 38°59' W 076°29'0 0.0
2017-Oct-08 06:57N 38°59' W 076°29'0 0.0
2017-Oct-08 06:30N 38°59' W 076°29'0 0.0
2017-Oct-08 06:00N 38°59' W 076°29'0 0.0
2017-Oct-08 05:30N 38°59' W 076°29'0 0.0
2017-Oct-08 05:00N 38°59' W 076°29'0 0.0
2017-Oct-08 04:30N 38°59' W 076°29'0 0.0
2017-Oct-08 04:00N 38°59' W 076°29'0 0.0
2017-Oct-08 03:30N 38°59' W 076°29'0 0.0
2017-Oct-08 03:00N 38°59' W 076°29'0 0.0
2017-Oct-07 21:06N 38°59' W 076°29'0 0.0
2017-Oct-07 21:00N 38°59' W 076°29'0 0.0
2017-Oct-07 20:30N 38°59' W 076°29'0 0.0
2017-Oct-07 19:57N 38°59' W 076°29'0 0.0
2017-Oct-07 19:30N 38°59' W 076°29'0 0.0
2017-Oct-07 19:00N 38°59' W 076°29'0 0.0
2017-Oct-07 18:30N 38°59' W 076°29'0 0.0
2017-Oct-07 14:03N 38°59' W 076°29'0 0.0
2017-Oct-07 14:00N 38°59' W 076°29'0 0.0
2017-Oct-07 13:30N 38°59' W 076°29'0 0.0
2017-Oct-07 13:00N 38°59' W 076°29'0 0.0
2017-Oct-07 12:30N 38°59' W 076°29'0 0.0
2017-Oct-07 12:00N 38°59' W 076°29'0 0.0
2017-Oct-07 11:30N 38°59' W 076°29'0 0.0
2017-Oct-07 11:00N 38°59' W 076°29'0 0.0
2017-Oct-07 10:30N 38°59' W 076°29'0 0.0
2017-Oct-07 09:54N 38°59' W 076°29'0 0.0
2017-Oct-07 09:30N 38°59' W 076°29'0 0.0
2017-Oct-07 09:00N 38°59' W 076°29'0 0.0
2017-Oct-07 08:30N 38°59' W 076°29'0 0.0
2017-Oct-07 08:00N 38°59' W 076°29'0 0.0
2017-Oct-07 07:30N 38°59' W 076°29'0 0.0
2017-Oct-07 07:00N 38°59' W 076°29'0 0.0
2017-Oct-07 06:30N 38°59' W 076°29'0 0.0
2017-Oct-07 06:00N 38°59' W 076°29'0 0.0
2017-Oct-07 05:30N 38°59' W 076°29'0 0.0
2017-Oct-07 05:00N 38°59' W 076°29'0 0.0
2017-Oct-07 04:27N 38°59' W 076°29'0 0.0
2017-Oct-07 04:00N 38°59' W 076°29'0 0.0
2017-Oct-07 03:30N 38°59' W 076°29'0 0.0
2017-Oct-07 03:00N 38°59' W 076°29'0 0.0
2017-Oct-07 02:30N 38°59' W 076°29'0 0.0
2017-Oct-07 01:48N 38°59' W 076°29'0 0.0
2017-Oct-07 01:30N 38°59' W 076°29'0 0.0
2017-Oct-07 01:00N 38°59' W 076°29'0 0.0
2017-Oct-06 16:39N 38°59' W 076°29'0 0.0
2017-Oct-06 16:30N 38°59' W 076°29'0 0.0
2017-Oct-06 16:00N 38°59' W 076°29'0 0.0
2017-Oct-06 15:30N 38°59' W 076°29'0 0.0
2017-Oct-06 14:57N 38°59' W 076°29'0 0.0
2017-Oct-06 14:30N 38°59' W 076°29'0 0.0
2017-Oct-06 14:00N 38°59' W 076°29'0 0.0
2017-Oct-06 13:30N 38°59' W 076°29'0 0.0
2017-Oct-06 13:00N 38°59' W 076°29'0 0.0
2017-Oct-06 12:30N 38°59' W 076°29'0 0.0
2017-Oct-06 12:00N 38°59' W 076°29'0 0.0
2017-Oct-06 11:30N 38°59' W 076°29'0 0.0
2017-Oct-06 11:00N 38°59' W 076°29'0 0.0
2017-Oct-06 10:30N 38°59' W 076°29'0 0.0
2017-Oct-06 10:00N 38°59' W 076°29'0 0.0
2017-Oct-06 09:30N 38°59' W 076°29'0 0.0
2017-Oct-06 09:00N 38°59' W 076°29'0 0.0
2017-Oct-06 08:30N 38°59' W 076°29'0 0.0
2017-Oct-06 08:00N 38°59' W 076°29'0 0.0
2017-Oct-06 07:30N 38°59' W 076°29'0 0.0
2017-Oct-06 07:00N 38°59' W 076°29'0 0.0
2017-Oct-06 06:30N 38°59' W 076°29'0 0.0
2017-Oct-06 06:00N 38°59' W 076°29'0 0.0
2017-Oct-06 05:30N 38°59' W 076°29'0 0.0
2017-Oct-06 05:00N 38°59' W 076°29'0 0.0
2017-Oct-06 04:30N 38°59' W 076°29'0 0.0
2017-Oct-06 04:00N 38°59' W 076°29'0 0.0
2017-Oct-06 03:30N 38°59' W 076°29'0 0.0
2017-Oct-06 03:00N 38°59' W 076°29'0 0.0
2017-Oct-06 02:30N 38°59' W 076°29'0 0.0
2017-Oct-06 01:12N 38°59' W 076°29'0 0.0
2017-Oct-06 01:00N 38°59' W 076°29'0 0.0
2017-Oct-06 00:30N 38°59' W 076°29'0 0.0
2017-Oct-06 00:00N 38°59' W 076°29'0 0.0
2017-Oct-05 23:30N 38°59' W 076°29'0 0.0
2017-Oct-05 23:00N 38°59' W 076°29'0 0.0
2017-Oct-05 22:30N 38°59' W 076°29'0 0.0
2017-Oct-05 22:00N 38°59' W 076°29'0 0.0
2017-Oct-05 21:30N 38°59' W 076°29'0 0.0
2017-Oct-05 21:00N 38°59' W 076°29'0 0.0
2017-Oct-05 20:30N 38°59' W 076°29'0 0.0
2017-Oct-05 20:00N 38°59' W 076°29'0 0.0
2017-Oct-05 19:30N 38°59' W 076°29'0 0.0
2017-Oct-05 18:57N 38°59' W 076°29'0 0.0
2017-Oct-05 18:30N 38°59' W 076°29'0 0.0
2017-Oct-05 17:57N 38°59' W 076°29'0 0.0
2017-Oct-05 17:30N 38°59' W 076°29'  
Track history (hours):
 
Tides and Currents Weather Stations Pressure Air Temp Water Temp Dewpoint Dewpoint Depression Visibility Wind Speed Wind Dir Waves Ship Positions

Orpheus

Owner: Joukov, Serguei, Reston, VA. More information available from US FCC via Universal Licensing System and Coast Guard Vessel Documentation Center.

Last reported at 2017-Oct-15 17:23 UTC. Time now 2017-Oct-17 16:43 UTC.
Position N 38°60' W 076°23'.

Length 12 m.

Type: Sailing vessel. MMSI: 367781970.

Date/timePositionNaut miles runAvg speedWind from/ knotsBaromVisibWave heightAir tempDewpointWater temp
2017-Oct-15 17:23N 38°60' W 076°23'2 6.0
2017-Oct-15 17:01N 38°59' W 076°25'2 4.2
2017-Oct-15 16:31N 38°60' W 076°27'0 0.5
2017-Oct-15 15:55N 39°00' W 076°27'0 0.0
2017-Oct-15 15:28N 39°00' W 076°27'0 0.0
2017-Oct-15 14:55N 39°00' W 076°27'2 2.6
2017-Oct-15 14:00N 38°58' W 076°26'2 3.1
2017-Oct-15 13:30N 38°58' W 076°28'0 0.7
2017-Oct-15 13:00N 38°58' W 076°29'0 0.0
2017-Oct-15 12:30N 38°58' W 076°29'0 0.0
2017-Oct-15 12:00N 38°58' W 076°29'0 0.0
2017-Oct-15 11:27N 38°58' W 076°29'0 0.0
2017-Oct-15 11:00N 38°58' W 076°29'0 0.0
2017-Oct-15 10:30N 38°58' W 076°29'0 0.0
2017-Oct-15 10:00N 38°58' W 076°29'0 0.0
2017-Oct-15 09:30N 38°58' W 076°29'0 0.0
2017-Oct-15 09:00N 38°58' W 076°29'0 0.0
2017-Oct-15 08:30N 38°58' W 076°29'0 0.0
2017-Oct-15 08:00N 38°58' W 076°29'0 0.0
2017-Oct-15 07:30N 38°58' W 076°29'0 0.0
2017-Oct-15 06:57N 38°58' W 076°29'0 0.0
2017-Oct-15 06:30N 38°58' W 076°29'0 0.0
2017-Oct-15 06:00N 38°58' W 076°29'0 0.0
2017-Oct-15 05:30N 38°58' W 076°29'0 0.0
2017-Oct-15 05:00N 38°58' W 076°29'0 0.0
2017-Oct-15 04:30N 38°58' W 076°29'0 0.0
2017-Oct-15 04:00N 38°58' W 076°29'0 0.0
2017-Oct-15 03:30N 38°58' W 076°29'0 0.0
2017-Oct-15 03:00N 38°58' W 076°29'0 0.0
2017-Oct-15 02:30N 38°58' W 076°29'0 0.0
2017-Oct-15 02:00N 38°58' W 076°29'0 0.0
2017-Oct-15 01:24N 38°58' W 076°29'0 0.0
2017-Oct-15 01:00N 38°58' W 076°29'0 0.0
2017-Oct-15 00:30N 38°58' W 076°29'0 0.0
2017-Oct-15 00:00N 38°58' W 076°29'0 0.0
2017-Oct-14 23:30N 38°58' W 076°29'1 1.0
2017-Oct-14 22:59N 38°58' W 076°28'0 1.0
2017-Oct-14 22:30N 38°59' W 076°28'1 1.5
2017-Oct-14 21:59N 38°58' W 076°29'0 0.0
2017-Oct-14 21:29N 38°58' W 076°29'0 0.0
2017-Oct-14 20:59N 38°58' W 076°29'2 3.5
2017-Oct-14 20:30N 38°57' W 076°27'3 1.2
2017-Oct-14 18:03N 38°55' W 076°24'0 2.6
2017-Oct-14 18:00N 38°55' W 076°25'1 2.8
2017-Oct-14 17:30N 38°56' W 076°25'1 2.4
2017-Oct-14 17:00N 38°57' W 076°26'1 3.0
2017-Oct-14 16:30N 38°58' W 076°28'1 1.3
2017-Oct-14 16:00N 38°58' W 076°29'0 0.0
2017-Oct-14 15:30N 38°58' W 076°29'0 0.0
2017-Oct-14 15:00N 38°58' W 076°29'0 0.0
2017-Oct-14 14:30N 38°58' W 076°29'0 0.0
2017-Oct-14 14:00N 38°58' W 076°29'0 0.0
2017-Oct-14 13:30N 38°58' W 076°29'0 0.0
2017-Oct-14 13:00N 38°58' W 076°29'0 0.0
2017-Oct-14 12:30N 38°58' W 076°29'0 0.0
2017-Oct-14 12:00N 38°58' W 076°29'0 0.0
2017-Oct-14 11:27N 38°58' W 076°29'0 0.0
2017-Oct-14 11:00N 38°58' W 076°29'0 0.0
2017-Oct-14 10:30N 38°58' W 076°29'0 0.0
2017-Oct-14 10:00N 38°58' W 076°29'0 0.0
2017-Oct-14 09:30N 38°58' W 076°29'0 0.0
2017-Oct-14 09:00N 38°58' W 076°29'0 0.0
2017-Oct-14 08:30N 38°58' W 076°29'0 0.0
2017-Oct-14 08:00N 38°58' W 076°29'0 0.0
2017-Oct-14 07:30N 38°58' W 076°29'0 0.0
2017-Oct-14 07:00N 38°58' W 076°29'0 0.0
2017-Oct-14 06:30N 38°58' W 076°29'0 0.0
2017-Oct-14 06:00N 38°58' W 076°29'0 0.0
2017-Oct-14 05:30N 38°58' W 076°29'0 0.0
2017-Oct-14 05:00N 38°58' W 076°29'0 0.0
2017-Oct-14 04:30N 38°58' W 076°29'0 0.0
2017-Oct-14 04:00N 38°58' W 076°29'0 0.0
2017-Oct-14 03:30N 38°58' W 076°29'0 0.0
2017-Oct-14 03:00N 38°58' W 076°29'0 0.0
2017-Oct-14 02:24N 38°58' W 076°29'0 0.0
2017-Oct-14 02:00N 38°58' W 076°29'0 0.0
2017-Oct-13 23:18N 38°58' W 076°29'0 0.0
2017-Oct-13 23:00N 38°58' W 076°29'0 0.0
2017-Oct-13 22:30N 38°58' W 076°29'0 0.0
2017-Oct-13 22:00N 38°58' W 076°29'0 0.0
2017-Oct-13 21:30N 38°58' W 076°29'0 0.0
2017-Oct-13 21:00N 38°58' W 076°29'0 0.9
2017-Oct-13 20:30N 38°58' W 076°28'2 3.3
2017-Oct-13 20:00N 38°57' W 076°26'2 2.7
2017-Oct-13 19:08N 38°55' W 076°26'1 4.7
2017-Oct-13 18:54N 38°56' W 076°26'2 5.7
2017-Oct-13 18:30N 38°58' W 076°27'1 1.9
2017-Oct-13 18:00N 38°58' W 076°29'0 0.0
2017-Oct-13 17:30N 38°58' W 076°29'0 0.0
2017-Oct-13 17:00N 38°58' W 076°29'0 0.0
2017-Oct-13 16:30N 38°58' W 076°29'0 0.0
2017-Oct-13 16:00N 38°58' W 076°29'0 0.0
2017-Oct-13 15:30N 38°58' W 076°29'0 0.0
2017-Oct-13 15:00N 38°58' W 076°29'0 0.0
2017-Oct-13 14:27N 38°58' W 076°29'0 0.0
2017-Oct-13 14:00N 38°58' W 076°29'0 0.0
2017-Oct-13 13:30N 38°58' W 076°29'0 0.0
2017-Oct-13 13:00N 38°58' W 076°29'0 0.0
2017-Oct-13 12:30N 38°58' W 076°29'0 0.0
2017-Oct-13 12:00N 38°58' W 076°29'0 0.0
2017-Oct-13 11:30N 38°58' W 076°29'0 0.0
2017-Oct-13 11:00N 38°58' W 076°29'0 0.0
2017-Oct-13 10:30N 38°58' W 076°29'0 0.0
2017-Oct-13 09:57N 38°58' W 076°29'0 0.0
2017-Oct-13 09:30N 38°58' W 076°29'0 0.0
2017-Oct-13 09:00N 38°58' W 076°29'0 0.0
2017-Oct-13 08:30N 38°58' W 076°29'0 0.0
2017-Oct-13 08:00N 38°58' W 076°29'0 0.0
2017-Oct-13 07:30N 38°58' W 076°29'0 0.0
2017-Oct-13 07:00N 38°58' W 076°29'0 0.0
2017-Oct-13 06:30N 38°58' W 076°29'0 0.0
2017-Oct-13 06:00N 38°58' W 076°29'0 0.0
2017-Oct-13 05:30N 38°58' W 076°29'0 0.0
2017-Oct-13 05:00N 38°58' W 076°29'0 0.0
2017-Oct-13 04:30N 38°58' W 076°29'0 0.0
2017-Oct-13 04:00N 38°58' W 076°29'0 0.0
2017-Oct-13 03:30N 38°58' W 076°29'0 0.0
2017-Oct-13 03:00N 38°58' W 076°29'0 0.0
2017-Oct-13 02:30N 38°58' W 076°29'0 0.0
2017-Oct-13 02:00N 38°58' W 076°29'0 0.0
2017-Oct-13 01:30N 38°58' W 076°29'0 0.0
2017-Oct-13 01:00N 38°58' W 076°29'0 0.0
2017-Oct-13 00:30N 38°58' W 076°29'0 0.0
2017-Oct-13 00:00N 38°58' W 076°29'0 0.0
2017-Oct-12 23:30N 38°58' W 076°29'0 0.0
2017-Oct-12 23:00N 38°58' W 076°29'0 0.0
2017-Oct-12 22:30N 38°58' W 076°29'0 0.0
2017-Oct-12 22:00N 38°58' W 076°29'0 0.0
2017-Oct-12 21:30N 38°58' W 076°29'0 0.0
2017-Oct-12 21:00N 38°58' W 076°29'0 0.0
2017-Oct-12 20:30N 38°58' W 076°29'0 0.0
2017-Oct-12 20:00N 38°58' W 076°29'0 0.0
2017-Oct-12 19:30N 38°58' W 076°29'0 0.0
2017-Oct-12 19:00N 38°58' W 076°29'0 0.0
2017-Oct-12 18:30N 38°58' W 076°29'0 0.0
2017-Oct-12 18:00N 38°58' W 076°29'0 0.0
2017-Oct-12 17:30N 38°58' W 076°29'0 0.0
2017-Oct-12 17:00N 38°58' W 076°29'0 0.0
2017-Oct-12 16:30N 38°58' W 076°29'0 0.0
2017-Oct-12 16:00N 38°58' W 076°29'0 0.0
2017-Oct-12 15:30N 38°58' W 076°29'0 0.0
2017-Oct-12 15:00N 38°58' W 076°29'0 0.0
2017-Oct-12 14:30N 38°58' W 076°29'0 0.0
2017-Oct-12 14:00N 38°58' W 076°29'0 0.0
2017-Oct-12 13:30N 38°58' W 076°29'0 0.0
2017-Oct-12 13:00N 38°58' W 076°29'0 0.0
2017-Oct-12 12:30N 38°58' W 076°29'0 0.0
2017-Oct-12 11:54N 38°58' W 076°29'0 0.0
2017-Oct-12 11:30N 38°58' W 076°29'0 0.0
2017-Oct-12 11:00N 38°58' W 076°29'0 0.0
2017-Oct-12 10:30N 38°58' W 076°29'0 0.0
2017-Oct-12 10:00N 38°58' W 076°29'0 0.0
2017-Oct-12 09:30N 38°58' W 076°29'0 0.0
2017-Oct-12 09:00N 38°58' W 076°29'0 0.0
2017-Oct-12 08:30N 38°58' W 076°29'0 0.0
2017-Oct-12 08:00N 38°58' W 076°29'0 0.0
2017-Oct-12 07:30N 38°58' W 076°29'0 0.0
2017-Oct-12 07:00N 38°58' W 076°29'0 0.0
2017-Oct-12 06:27N 38°58' W 076°29'0 0.0
2017-Oct-12 06:00N 38°58' W 076°29'0 0.0
2017-Oct-12 05:30N 38°58' W 076°29'0 0.0
2017-Oct-12 05:00N 38°58' W 076°29'0 0.0
2017-Oct-12 04:30N 38°58' W 076°29'0 0.0
2017-Oct-12 04:00N 38°58' W 076°29'0 0.0
2017-Oct-12 03:30N 38°58' W 076°29'0 0.0
2017-Oct-12 03:00N 38°58' W 076°29'0 0.0
2017-Oct-12 02:30N 38°58' W 076°29'0 0.0
2017-Oct-12 02:00N 38°58' W 076°29'0 0.0
2017-Oct-12 01:27N 38°58' W 076°29'0 0.0
2017-Oct-12 00:57N 38°58' W 076°29'0 0.0
2017-Oct-12 00:30N 38°58' W 076°29'0 0.0
2017-Oct-12 00:00N 38°58' W 076°29'0 0.0
2017-Oct-11 23:30N 38°58' W 076°29'0 0.0
2017-Oct-11 23:00N 38°58' W 076°29'0 0.0
2017-Oct-11 22:30N 38°58' W 076°29'0 0.0
2017-Oct-11 22:00N 38°58' W 076°29'0 0.0
2017-Oct-11 21:30N 38°58' W 076°29'0 0.0
2017-Oct-11 21:00N 38°58' W 076°29'0 0.0
2017-Oct-11 20:30N 38°58' W 076°29'0 0.0
2017-Oct-11 20:00N 38°58' W 076°29'0 0.0
2017-Oct-11 19:30N 38°58' W 076°29'0 0.0
2017-Oct-11 19:00N 38°58' W 076°29'0 0.0
2017-Oct-11 18:30N 38°58' W 076°29'0 0.0
2017-Oct-11 18:00N 38°58' W 076°29'0 0.0
2017-Oct-11 17:30N 38°58' W 076°29'0 0.0
2017-Oct-11 17:00N 38°58' W 076°29'0 0.0
2017-Oct-11 00:00N 38°58' W 076°29'0 0.0
2017-Oct-10 23:30N 38°58' W 076°29'0 0.0
2017-Oct-10 23:00N 38°58' W 076°29'0 0.0
2017-Oct-10 22:30N 38°58' W 076°29'0 0.0
2017-Oct-10 22:00N 38°58' W 076°29'0 0.0
2017-Oct-10 21:30N 38°58' W 076°29'0 0.0
2017-Oct-10 21:00N 38°58' W 076°29'0 0.0
2017-Oct-10 20:30N 38°58' W 076°29'0 0.0
2017-Oct-10 20:00N 38°58' W 076°29'0 0.0
2017-Oct-10 19:30N 38°58' W 076°29'0 0.0
2017-Oct-10 19:00N 38°58' W 076°29'0 0.0
2017-Oct-10 18:30N 38°58' W 076°29'0 0.0
2017-Oct-10 18:00N 38°58' W 076°29'0 0.0
2017-Oct-10 17:30N 38°58' W 076°29'0 0.0
2017-Oct-10 17:00N 38°58' W 076°29'0 0.0
2017-Oct-10 16:30N 38°58' W 076°29'0 0.0
2017-Oct-10 16:00N 38°58' W 076°29'0 0.0
2017-Oct-10 15:30N 38°58' W 076°29'0 0.0
2017-Oct-10 15:00N 38°58' W 076°29'0 0.0
2017-Oct-10 14:00N 38°58' W 076°29'0 0.0
2017-Oct-10 13:30N 38°58' W 076°29'0 0.0
2017-Oct-10 13:00N 38°58' W 076°29'0 0.0
2017-Oct-10 12:30N 38°58' W 076°29'0 0.0
2017-Oct-10 12:00N 38°58' W 076°29'0 0.0
2017-Oct-10 11:30N 38°58' W 076°29'0 0.0
2017-Oct-10 11:00N 38°58' W 076°29'0 0.0
2017-Oct-10 10:30N 38°58' W 076°29'0 0.0
2017-Oct-10 10:00N 38°58' W 076°29'0 0.0
2017-Oct-10 09:30N 38°58' W 076°29'0 0.0
2017-Oct-10 09:00N 38°58' W 076°29'0 0.0
2017-Oct-10 08:30N 38°58' W 076°29'0 0.0
2017-Oct-10 08:00N 38°58' W 076°29'0 0.0
2017-Oct-10 07:30N 38°58' W 076°29'0 0.0
2017-Oct-10 07:00N 38°58' W 076°29'0 0.0
2017-Oct-10 06:30N 38°58' W 076°29'0 0.0
2017-Oct-10 06:00N 38°58' W 076°29'0 0.0
2017-Oct-10 05:30N 38°58' W 076°29'0 0.0
2017-Oct-10 05:00N 38°58' W 076°29'0 0.0
2017-Oct-10 04:27N 38°58' W 076°29'0 0.0
2017-Oct-10 04:00N 38°58' W 076°29'0 0.0
2017-Oct-10 03:30N 38°58' W 076°29'0 0.0
2017-Oct-10 03:00N 38°58' W 076°29'0 0.0
2017-Oct-10 02:30N 38°58' W 076°29'0 0.0
2017-Oct-10 01:06N 38°58' W 076°29'0 0.0
2017-Oct-10 01:00N 38°58' W 076°29'0 0.0
2017-Oct-10 00:30N 38°58' W 076°29'0 0.0
2017-Oct-10 00:00N 38°58' W 076°29'0 0.0
2017-Oct-09 23:30N 38°58' W 076°29'0 0.0
2017-Oct-09 23:00N 38°58' W 076°29'0 0.0
2017-Oct-09 22:30N 38°58' W 076°29'0 0.0
2017-Oct-09 22:00N 38°58' W 076°29'1 1.0
2017-Oct-09 21:30N 38°59' W 076°29'0 0.4
2017-Oct-09 20:57N 38°59' W 076°29'0 0.0
2017-Oct-09 20:30N 38°59' W 076°29'0 0.0
2017-Oct-09 19:57N 38°59' W 076°29'0 0.0
2017-Oct-09 19:30N 38°59' W 076°29'0 0.0
2017-Oct-09 19:00N 38°59' W 076°29'0 0.0
2017-Oct-09 18:30N 38°59' W 076°29'0 0.0
2017-Oct-09 18:00N 38°59' W 076°29'0 0.0
2017-Oct-09 17:30N 38°59' W 076°29'0 0.0
2017-Oct-09 17:00N 38°59' W 076°29'0 0.0
2017-Oct-09 16:30N 38°59' W 076°29'0 0.0
2017-Oct-09 15:57N 38°59' W 076°29'0 0.0
2017-Oct-09 15:30N 38°59' W 076°29'0 0.0
2017-Oct-09 15:00N 38°59' W 076°29'0 0.0
2017-Oct-09 14:30N 38°59' W 076°29'0 0.0
2017-Oct-09 14:00N 38°59' W 076°29'0 0.0
2017-Oct-09 13:27N 38°59' W 076°29'0 0.0
2017-Oct-09 13:00N 38°59' W 076°29'0 0.0
2017-Oct-09 12:30N 38°59' W 076°29'0 0.0
2017-Oct-09 11:57N 38°59' W 076°29'0 0.0
2017-Oct-09 11:30N 38°59' W 076°29'0 0.0
2017-Oct-09 11:00N 38°59' W 076°29'0 0.0
2017-Oct-09 10:30N 38°59' W 076°29'0 0.0
2017-Oct-09 09:57N 38°59' W 076°29'0 0.0
2017-Oct-09 09:30N 38°59' W 076°29'0 0.0
2017-Oct-09 09:00N 38°59' W 076°29'0 0.0
2017-Oct-09 08:30N 38°59' W 076°29'0 0.0
2017-Oct-09 08:00N 38°59' W 076°29'0 0.0
2017-Oct-09 07:30N 38°59' W 076°29'0 0.0
2017-Oct-09 07:00N 38°59' W 076°29'0 0.0
2017-Oct-09 06:30N 38°59' W 076°29'0 0.0
2017-Oct-09 06:00N 38°59' W 076°29'0 0.0
2017-Oct-09 05:27N 38°59' W 076°29'0 0.0
2017-Oct-09 05:00N 38°59' W 076°29'0 0.0
2017-Oct-09 04:30N 38°59' W 076°29'0 0.0
2017-Oct-09 04:00N 38°59' W 076°29'0 0.0
2017-Oct-09 03:30N 38°59' W 076°29'0 0.0
2017-Oct-09 03:00N 38°59' W 076°29'0 0.0
2017-Oct-09 02:30N 38°59' W 076°29'0 0.0
2017-Oct-09 02:00N 38°59' W 076°29'0 0.0
2017-Oct-09 01:27N 38°59' W 076°29'0 0.0
2017-Oct-09 01:00N 38°59' W 076°29'0 0.0
2017-Oct-09 00:30N 38°59' W 076°29'0 0.0
2017-Oct-09 00:00N 38°59' W 076°29'0 0.0
2017-Oct-08 16:21N 38°59' W 076°29'0 0.0
2017-Oct-08 16:00N 38°59' W 076°29'0 0.0
2017-Oct-08 15:30N 38°59' W 076°29'0 0.0
2017-Oct-08 15:00N 38°59' W 076°29'0 0.0
2017-Oct-08 14:30N 38°59' W 076°29'0 0.0
2017-Oct-08 14:00N 38°59' W 076°29'0 0.0
2017-Oct-08 13:30N 38°59' W 076°29'0 0.0
2017-Oct-08 13:00N 38°59' W 076°29'0 0.0
2017-Oct-08 12:30N 38°59' W 076°29'0 0.0
2017-Oct-08 11:57N 38°59' W 076°29'0 0.0
2017-Oct-08 11:30N 38°59' W 076°29'0 0.0
2017-Oct-08 11:00N 38°59' W 076°29'0 0.0
2017-Oct-08 10:30N 38°59' W 076°29'0 0.0
2017-Oct-08 10:00N 38°59' W 076°29'0 0.0
2017-Oct-08 09:30N 38°59' W 076°29'0 0.0
2017-Oct-08 09:00N 38°59' W 076°29'0 0.0
2017-Oct-08 08:27N 38°59' W 076°29'0 0.0
2017-Oct-08 08:00N 38°59' W 076°29'0 0.0
2017-Oct-08 07:30N 38°59' W 076°29'0 0.0
2017-Oct-08 06:57N 38°59' W 076°29'0 0.0
2017-Oct-08 06:30N 38°59' W 076°29'0 0.0
2017-Oct-08 06:00N 38°59' W 076°29'0 0.0
2017-Oct-08 05:30N 38°59' W 076°29'0 0.0
2017-Oct-08 05:00N 38°59' W 076°29'0 0.0
2017-Oct-08 04:30N 38°59' W 076°29'0 0.0
2017-Oct-08 04:00N 38°59' W 076°29'0 0.0
2017-Oct-08 03:30N 38°59' W 076°29'0 0.0
2017-Oct-08 03:00N 38°59' W 076°29'0 0.0
2017-Oct-07 21:06N 38°59' W 076°29'0 0.0
2017-Oct-07 21:00N 38°59' W 076°29'0 0.0
2017-Oct-07 20:30N 38°59' W 076°29'0 0.0
2017-Oct-07 19:57N 38°59' W 076°29'0 0.0
2017-Oct-07 19:30N 38°59' W 076°29'0 0.0
2017-Oct-07 19:00N 38°59' W 076°29'0 0.0
2017-Oct-07 18:30N 38°59' W 076°29'0 0.0
2017-Oct-07 14:03N 38°59' W 076°29'0 0.0
2017-Oct-07 14:00N 38°59' W 076°29'0 0.0
2017-Oct-07 13:30N 38°59' W 076°29'0 0.0
2017-Oct-07 13:00N 38°59' W 076°29'0 0.0
2017-Oct-07 12:30N 38°59' W 076°29'0 0.0
2017-Oct-07 12:00N 38°59' W 076°29'0 0.0
2017-Oct-07 11:30N 38°59' W 076°29'0 0.0
2017-Oct-07 11:00N 38°59' W 076°29'0 0.0
2017-Oct-07 10:30N 38°59' W 076°29'0 0.0
2017-Oct-07 09:54N 38°59' W 076°29'0 0.0
2017-Oct-07 09:30N 38°59' W 076°29'0 0.0
2017-Oct-07 09:00N 38°59' W 076°29'0 0.0
2017-Oct-07 08:30N 38°59' W 076°29'0 0.0
2017-Oct-07 08:00N 38°59' W 076°29'0 0.0
2017-Oct-07 07:30N 38°59' W 076°29'0 0.0
2017-Oct-07 07:00N 38°59' W 076°29'0 0.0
2017-Oct-07 06:30N 38°59' W 076°29'0 0.0
2017-Oct-07 06:00N 38°59' W 076°29'0 0.0
2017-Oct-07 05:30N 38°59' W 076°29'0 0.0
2017-Oct-07 05:00N 38°59' W 076°29'0 0.0
2017-Oct-07 04:27N 38°59' W 076°29'0 0.0
2017-Oct-07 04:00N 38°59' W 076°29'0 0.0
2017-Oct-07 03:30N 38°59' W 076°29'0 0.0
2017-Oct-07 03:00N 38°59' W 076°29'0 0.0
2017-Oct-07 02:30N 38°59' W 076°29'0 0.0
2017-Oct-07 01:48N 38°59' W 076°29'0 0.0
2017-Oct-07 01:30N 38°59' W 076°29'0 0.0
2017-Oct-07 01:00N 38°59' W 076°29'0 0.0
2017-Oct-06 16:39N 38°59' W 076°29'0 0.0
2017-Oct-06 16:30N 38°59' W 076°29'0 0.0
2017-Oct-06 16:00N 38°59' W 076°29'0 0.0
2017-Oct-06 15:30N 38°59' W 076°29'0 0.0
2017-Oct-06 14:57N 38°59' W 076°29'0 0.0
2017-Oct-06 14:30N 38°59' W 076°29'0 0.0
2017-Oct-06 14:00N 38°59' W 076°29'0 0.0
2017-Oct-06 13:30N 38°59' W 076°29'0 0.0
2017-Oct-06 13:00N 38°59' W 076°29'0 0.0
2017-Oct-06 12:30N 38°59' W 076°29'0 0.0
2017-Oct-06 12:00N 38°59' W 076°29'0 0.0
2017-Oct-06 11:30N 38°59' W 076°29'0 0.0
2017-Oct-06 11:00N 38°59' W 076°29'0 0.0
2017-Oct-06 10:30N 38°59' W 076°29'0 0.0
2017-Oct-06 10:00N 38°59' W 076°29'0 0.0
2017-Oct-06 09:30N 38°59' W 076°29'0 0.0
2017-Oct-06 09:00N 38°59' W 076°29'0 0.0
2017-Oct-06 08:30N 38°59' W 076°29'0 0.0
2017-Oct-06 08:00N 38°59' W 076°29'0 0.0
2017-Oct-06 07:30N 38°59' W 076°29'0 0.0
2017-Oct-06 07:00N 38°59' W 076°29'0 0.0
2017-Oct-06 06:30N 38°59' W 076°29'0 0.0
2017-Oct-06 06:00N 38°59' W 076°29'0 0.0
2017-Oct-06 05:30N 38°59' W 076°29'0 0.0
2017-Oct-06 05:00N 38°59' W 076°29'0 0.0
2017-Oct-06 04:30N 38°59' W 076°29'0 0.0
2017-Oct-06 04:00N 38°59' W 076°29'0 0.0
2017-Oct-06 03:30N 38°59' W 076°29'0 0.0
2017-Oct-06 03:00N 38°59' W 076°29'0 0.0
2017-Oct-06 02:30N 38°59' W 076°29'0 0.0
2017-Oct-06 01:12N 38°59' W 076°29'0 0.0
2017-Oct-06 01:00N 38°59' W 076°29'0 0.0
2017-Oct-06 00:30N 38°59' W 076°29'0 0.0
2017-Oct-06 00:00N 38°59' W 076°29'0 0.0
2017-Oct-05 23:30N 38°59' W 076°29'0 0.0
2017-Oct-05 23:00N 38°59' W 076°29'0 0.0
2017-Oct-05 22:30N 38°59' W 076°29'0 0.0
2017-Oct-05 22:00N 38°59' W 076°29'0 0.0
2017-Oct-05 21:30N 38°59' W 076°29'0 0.0
2017-Oct-05 21:00N 38°59' W 076°29'0 0.0
2017-Oct-05 20:30N 38°59' W 076°29'0 0.0
2017-Oct-05 20:00N 38°59' W 076°29'0 0.0
2017-Oct-05 19:30N 38°59' W 076°29'0 0.0
2017-Oct-05 18:57N 38°59' W 076°29'0 0.0
2017-Oct-05 18:30N 38°59' W 076°29'0 0.0
2017-Oct-05 17:57N 38°59' W 076°29'0 0.0
2017-Oct-05 17:30N 38°59' W 076°29'  

Dump ship's entire track history